sensor_id;sensor_type;location;lat;lon;timestamp;P1;durP1;ratioP1;P2;durP2;ratioP2
1785;SDS011;890;48.158;11.540;2022-09-28T00:00:05;1.17;;;1.07;;
1785;SDS011;890;48.158;11.540;2022-09-28T00:02:31;2.13;;;1.10;;
1785;SDS011;890;48.158;11.540;2022-09-28T00:04:57;1.00;;;0.90;;
1785;SDS011;890;48.158;11.540;2022-09-28T00:07:22;2.30;;;1.40;;
1785;SDS011;890;48.158;11.540;2022-09-28T00:09:48;2.00;;;1.00;;
1785;SDS011;890;48.158;11.540;2022-09-28T00:12:13;1.17;;;1.00;;
1785;SDS011;890;48.158;11.540;2022-09-28T00:14:39;2.00;;;1.00;;
1785;SDS011;890;48.158;11.540;2022-09-28T00:17:06;1.33;;;0.90;;
1785;SDS011;890;48.158;11.540;2022-09-28T00:19:32;1.10;;;0.93;;
1785;SDS011;890;48.158;11.540;2022-09-28T00:21:58;0.80;;;0.80;;
1785;SDS011;890;48.158;11.540;2022-09-28T00:24:23;0.77;;;0.73;;
1785;SDS011;890;48.158;11.540;2022-09-28T00:26:50;1.20;;;0.90;;
1785;SDS011;890;48.158;11.540;2022-09-28T00:29:33;2.40;;;1.00;;
1785;SDS011;890;48.158;11.540;2022-09-28T00:32:04;1.00;;;0.90;;
1785;SDS011;890;48.158;11.540;2022-09-28T00:34:40;2.43;;;0.80;;
1785;SDS011;890;48.158;11.540;2022-09-28T00:37:10;2.33;;;1.00;;
1785;SDS011;890;48.158;11.540;2022-09-28T00:39:37;0.90;;;0.83;;
1785;SDS011;890;48.158;11.540;2022-09-28T00:42:10;1.30;;;1.20;;
1785;SDS011;890;48.158;11.540;2022-09-28T00:44:39;0.80;;;0.80;;
1785;SDS011;890;48.158;11.540;2022-09-28T00:47:35;1.10;;;0.80;;
1785;SDS011;890;48.158;11.540;2022-09-28T00:52:58;1.57;;;0.80;;
1785;SDS011;890;48.158;11.540;2022-09-28T00:55:43;3.27;;;1.00;;
1785;SDS011;890;48.158;11.540;2022-09-28T00:58:15;1.53;;;0.80;;
1785;SDS011;890;48.158;11.540;2022-09-28T01:00:45;1.83;;;0.90;;
1785;SDS011;890;48.158;11.540;2022-09-28T01:03:12;0.80;;;0.70;;
1785;SDS011;890;48.158;11.540;2022-09-28T01:05:38;1.13;;;0.80;;
1785;SDS011;890;48.158;11.540;2022-09-28T01:08:04;2.03;;;1.00;;
1785;SDS011;890;48.158;11.540;2022-09-28T01:10:31;1.10;;;0.80;;
1785;SDS011;890;48.158;11.540;2022-09-28T01:12:57;0.80;;;0.70;;
1785;SDS011;890;48.158;11.540;2022-09-28T01:15:27;1.10;;;0.70;;
1785;SDS011;890;48.158;11.540;2022-09-28T01:28:42;1.10;;;0.90;;
1785;SDS011;890;48.158;11.540;2022-09-28T01:31:13;0.63;;;0.63;;
1785;SDS011;890;48.158;11.540;2022-09-28T01:33:44;1.00;;;0.90;;
1785;SDS011;890;48.158;11.540;2022-09-28T01:36:18;1.80;;;0.90;;
1785;SDS011;890;48.158;11.540;2022-09-28T01:38:52;0.70;;;0.63;;
1785;SDS011;890;48.158;11.540;2022-09-28T01:41:21;2.10;;;0.87;;
1785;SDS011;890;48.158;11.540;2022-09-28T01:43:50;1.23;;;0.87;;
1785;SDS011;890;48.158;11.540;2022-09-28T01:46:23;0.90;;;0.80;;
1785;SDS011;890;48.158;11.540;2022-09-28T01:48:53;0.70;;;0.70;;
1785;SDS011;890;48.158;11.540;2022-09-28T01:54:12;0.97;;;0.73;;
1785;SDS011;890;48.158;11.540;2022-09-28T01:56:50;2.40;;;0.80;;
1785;SDS011;890;48.158;11.540;2022-09-28T01:59:28;1.30;;;1.10;;
1785;SDS011;890;48.158;11.540;2022-09-28T02:02:01;0.83;;;0.83;;
1785;SDS011;890;48.158;11.540;2022-09-28T02:07:01;1.57;;;0.77;;
1785;SDS011;890;48.158;11.540;2022-09-28T02:09:43;2.73;;;0.90;;
1785;SDS011;890;48.158;11.540;2022-09-28T02:12:20;0.90;;;0.80;;
1785;SDS011;890;48.158;11.540;2022-09-28T02:14:51;1.33;;;0.83;;
1785;SDS011;890;48.158;11.540;2022-09-28T02:17:20;1.43;;;1.10;;
1785;SDS011;890;48.158;11.540;2022-09-28T02:19:46;1.00;;;0.80;;
1785;SDS011;890;48.158;11.540;2022-09-28T02:22:16;1.73;;;1.10;;
1785;SDS011;890;48.158;11.540;2022-09-28T02:27:36;1.07;;;0.90;;
1785;SDS011;890;48.158;11.540;2022-09-28T02:30:09;1.67;;;0.90;;
1785;SDS011;890;48.158;11.540;2022-09-28T02:32:36;1.23;;;0.90;;
1785;SDS011;890;48.158;11.540;2022-09-28T02:35:06;1.70;;;1.20;;
1785;SDS011;890;48.158;11.540;2022-09-28T02:37:37;1.13;;;1.00;;
1785;SDS011;890;48.158;11.540;2022-09-28T02:40:10;1.90;;;1.07;;
1785;SDS011;890;48.158;11.540;2022-09-28T02:42:51;1.47;;;0.80;;
1785;SDS011;890;48.158;11.540;2022-09-28T02:45:26;1.00;;;0.90;;
1785;SDS011;890;48.158;11.540;2022-09-28T02:50:48;1.53;;;0.90;;
1785;SDS011;890;48.158;11.540;2022-09-28T03:09:21;1.33;;;0.73;;
1785;SDS011;890;48.158;11.540;2022-09-28T03:12:10;2.07;;;0.90;;
1785;SDS011;890;48.158;11.540;2022-09-28T03:14:39;1.83;;;0.93;;
1785;SDS011;890;48.158;11.540;2022-09-28T03:17:05;0.80;;;0.80;;
1785;SDS011;890;48.158;11.540;2022-09-28T03:19:31;2.10;;;1.20;;
1785;SDS011;890;48.158;11.540;2022-09-28T03:21:58;1.47;;;1.10;;
1785;SDS011;890;48.158;11.540;2022-09-28T03:24:24;1.10;;;1.00;;
1785;SDS011;890;48.158;11.540;2022-09-28T03:26:50;1.37;;;0.90;;
1785;SDS011;890;48.158;11.540;2022-09-28T03:29:16;1.27;;;1.17;;
1785;SDS011;890;48.158;11.540;2022-09-28T03:31:44;1.10;;;1.00;;
1785;SDS011;890;48.158;11.540;2022-09-28T03:34:09;1.23;;;0.80;;
1785;SDS011;890;48.158;11.540;2022-09-28T03:36:35;1.10;;;1.00;;
1785;SDS011;890;48.158;11.540;2022-09-28T03:39:01;1.43;;;1.30;;
1785;SDS011;890;48.158;11.540;2022-09-28T03:41:26;1.30;;;0.87;;
1785;SDS011;890;48.158;11.540;2022-09-28T03:43:52;0.90;;;0.80;;
1785;SDS011;890;48.158;11.540;2022-09-28T03:46:18;1.00;;;0.90;;
1785;SDS011;890;48.158;11.540;2022-09-28T03:48:43;2.47;;;1.00;;
1785;SDS011;890;48.158;11.540;2022-09-28T03:51:09;1.60;;;0.93;;
1785;SDS011;890;48.158;11.540;2022-09-28T03:53:35;1.23;;;1.00;;
1785;SDS011;890;48.158;11.540;2022-09-28T03:56:02;0.93;;;0.83;;
1785;SDS011;890;48.158;11.540;2022-09-28T03:58:29;1.90;;;0.97;;
1785;SDS011;890;48.158;11.540;2022-09-28T04:00:59;2.37;;;0.90;;
1785;SDS011;890;48.158;11.540;2022-09-28T04:03:29;1.10;;;1.00;;
1785;SDS011;890;48.158;11.540;2022-09-28T04:05:55;1.20;;;0.70;;
1785;SDS011;890;48.158;11.540;2022-09-28T04:08:21;1.10;;;1.00;;
1785;SDS011;890;48.158;11.540;2022-09-28T04:10:47;1.67;;;0.80;;
1785;SDS011;890;48.158;11.540;2022-09-28T04:13:12;1.00;;;0.80;;
1785;SDS011;890;48.158;11.540;2022-09-28T04:15:38;0.70;;;0.70;;
1785;SDS011;890;48.158;11.540;2022-09-28T04:18:07;0.83;;;0.80;;
1785;SDS011;890;48.158;11.540;2022-09-28T04:20:34;1.63;;;0.90;;
1785;SDS011;890;48.158;11.540;2022-09-28T04:23:00;1.47;;;1.10;;
1785;SDS011;890;48.158;11.540;2022-09-28T04:25:26;0.87;;;0.80;;
1785;SDS011;890;48.158;11.540;2022-09-28T04:27:51;0.80;;;0.80;;
1785;SDS011;890;48.158;11.540;2022-09-28T04:30:35;1.17;;;1.07;;
1785;SDS011;890;48.158;11.540;2022-09-28T04:33:01;1.00;;;0.80;;
1785;SDS011;890;48.158;11.540;2022-09-28T04:35:27;1.13;;;1.03;;
1785;SDS011;890;48.158;11.540;2022-09-28T04:37:52;1.43;;;0.87;;
1785;SDS011;890;48.158;11.540;2022-09-28T04:40:18;1.00;;;0.90;;
1785;SDS011;890;48.158;11.540;2022-09-28T04:42:43;1.17;;;0.97;;
1785;SDS011;890;48.158;11.540;2022-09-28T04:45:09;1.47;;;1.13;;
1785;SDS011;890;48.158;11.540;2022-09-28T04:47:35;1.20;;;1.10;;
1785;SDS011;890;48.158;11.540;2022-09-28T04:50:00;1.37;;;1.00;;
1785;SDS011;890;48.158;11.540;2022-09-28T04:52:26;1.40;;;1.00;;
1785;SDS011;890;48.158;11.540;2022-09-28T04:54:51;1.20;;;1.10;;
1785;SDS011;890;48.158;11.540;2022-09-28T04:57:17;2.47;;;0.90;;
1785;SDS011;890;48.158;11.540;2022-09-28T04:59:43;1.17;;;1.00;;
1785;SDS011;890;48.158;11.540;2022-09-28T05:02:08;1.23;;;1.10;;
1785;SDS011;890;48.158;11.540;2022-09-28T05:04:34;1.37;;;1.10;;
1785;SDS011;890;48.158;11.540;2022-09-28T05:07:00;1.33;;;1.17;;
1785;SDS011;890;48.158;11.540;2022-09-28T05:09:25;1.23;;;1.07;;
1785;SDS011;890;48.158;11.540;2022-09-28T05:11:51;1.30;;;1.20;;
1785;SDS011;890;48.158;11.540;2022-09-28T05:14:17;2.30;;;1.20;;
1785;SDS011;890;48.158;11.540;2022-09-28T05:16:48;1.33;;;1.23;;
1785;SDS011;890;48.158;11.540;2022-09-28T05:19:14;1.17;;;1.00;;
1785;SDS011;890;48.158;11.540;2022-09-28T05:21:42;1.60;;;1.30;;
1785;SDS011;890;48.158;11.540;2022-09-28T05:24:09;2.10;;;1.90;;
1785;SDS011;890;48.158;11.540;2022-09-28T05:26:35;3.27;;;2.63;;
1785;SDS011;890;48.158;11.540;2022-09-28T05:29:01;2.83;;;1.77;;
1785;SDS011;890;48.158;11.540;2022-09-28T05:31:26;1.80;;;1.10;;
1785;SDS011;890;48.158;11.540;2022-09-28T05:33:52;1.90;;;1.10;;
1785;SDS011;890;48.158;11.540;2022-09-28T05:36:18;1.83;;;1.30;;
1785;SDS011;890;48.158;11.540;2022-09-28T05:38:44;1.63;;;1.33;;
1785;SDS011;890;48.158;11.540;2022-09-28T05:41:10;2.73;;;2.47;;
1785;SDS011;890;48.158;11.540;2022-09-28T05:43:36;1.60;;;1.40;;
1785;SDS011;890;48.158;11.540;2022-09-28T05:46:02;1.33;;;1.20;;
1785;SDS011;890;48.158;11.540;2022-09-28T05:48:28;2.17;;;1.90;;
1785;SDS011;890;48.158;11.540;2022-09-28T05:50:54;1.60;;;0.97;;
1785;SDS011;890;48.158;11.540;2022-09-28T05:53:20;2.20;;;1.20;;
1785;SDS011;890;48.158;11.540;2022-09-28T05:55:46;4.13;;;1.53;;
1785;SDS011;890;48.158;11.540;2022-09-28T05:58:11;1.80;;;1.50;;
1785;SDS011;890;48.158;11.540;2022-09-28T06:00:37;3.20;;;2.23;;
1785;SDS011;890;48.158;11.540;2022-09-28T06:03:04;1.53;;;1.40;;
1785;SDS011;890;48.158;11.540;2022-09-28T06:05:32;3.30;;;1.57;;
1785;SDS011;890;48.158;11.540;2022-09-28T06:08:00;2.20;;;1.33;;
1785;SDS011;890;48.158;11.540;2022-09-28T06:10:27;1.47;;;1.10;;
1785;SDS011;890;48.158;11.540;2022-09-28T06:12:53;1.03;;;0.90;;
1785;SDS011;890;48.158;11.540;2022-09-28T06:15:20;1.83;;;1.20;;
1785;SDS011;890;48.158;11.540;2022-09-28T06:17:47;1.60;;;1.33;;
1785;SDS011;890;48.158;11.540;2022-09-28T06:20:19;1.87;;;1.70;;
1785;SDS011;890;48.158;11.540;2022-09-28T06:22:44;1.53;;;1.40;;
1785;SDS011;890;48.158;11.540;2022-09-28T06:25:10;3.30;;;1.33;;
1785;SDS011;890;48.158;11.540;2022-09-28T06:27:35;1.60;;;1.17;;
1785;SDS011;890;48.158;11.540;2022-09-28T06:30:01;1.80;;;1.50;;
1785;SDS011;890;48.158;11.540;2022-09-28T06:32:27;1.80;;;1.50;;
1785;SDS011;890;48.158;11.540;2022-09-28T06:34:53;1.70;;;1.60;;
1785;SDS011;890;48.158;11.540;2022-09-28T06:37:19;1.57;;;1.47;;
1785;SDS011;890;48.158;11.540;2022-09-28T06:39:45;3.20;;;2.50;;
1785;SDS011;890;48.158;11.540;2022-09-28T06:42:10;4.13;;;2.40;;
1785;SDS011;890;48.158;11.540;2022-09-28T06:44:36;4.90;;;2.73;;
1785;SDS011;890;48.158;11.540;2022-09-28T06:47:02;2.10;;;1.90;;
1785;SDS011;890;48.158;11.540;2022-09-28T06:49:27;2.40;;;1.90;;
1785;SDS011;890;48.158;11.540;2022-09-28T06:51:54;1.80;;;1.20;;
1785;SDS011;890;48.158;11.540;2022-09-28T06:54:20;1.20;;;1.10;;
1785;SDS011;890;48.158;11.540;2022-09-28T06:56:50;1.90;;;1.30;;
1785;SDS011;890;48.158;11.540;2022-09-28T06:59:16;2.57;;;1.07;;
1785;SDS011;890;48.158;11.540;2022-09-28T07:01:42;2.37;;;1.50;;
1785;SDS011;890;48.158;11.540;2022-09-28T07:04:07;1.60;;;1.27;;
1785;SDS011;890;48.158;11.540;2022-09-28T07:06:33;2.23;;;1.20;;
1785;SDS011;890;48.158;11.540;2022-09-28T07:08:58;2.77;;;1.80;;
1785;SDS011;890;48.158;11.540;2022-09-28T07:11:26;3.23;;;1.37;;
1785;SDS011;890;48.158;11.540;2022-09-28T07:13:53;2.30;;;1.27;;
1785;SDS011;890;48.158;11.540;2022-09-28T07:16:18;1.90;;;1.33;;
1785;SDS011;890;48.158;11.540;2022-09-28T07:18:44;1.57;;;0.90;;
1785;SDS011;890;48.158;11.540;2022-09-28T07:21:09;1.47;;;1.20;;
1785;SDS011;890;48.158;11.540;2022-09-28T07:23:36;2.90;;;1.10;;
1785;SDS011;890;48.158;11.540;2022-09-28T07:26:03;2.50;;;1.10;;
1785;SDS011;890;48.158;11.540;2022-09-28T07:28:29;1.20;;;1.10;;
1785;SDS011;890;48.158;11.540;2022-09-28T07:30:55;1.60;;;1.00;;
1785;SDS011;890;48.158;11.540;2022-09-28T07:33:21;1.30;;;1.10;;
1785;SDS011;890;48.158;11.540;2022-09-28T07:35:50;1.73;;;0.97;;
1785;SDS011;890;48.158;11.540;2022-09-28T07:38:16;2.03;;;1.10;;
1785;SDS011;890;48.158;11.540;2022-09-28T07:40:42;2.10;;;1.50;;
1785;SDS011;890;48.158;11.540;2022-09-28T07:43:26;1.97;;;1.77;;
1785;SDS011;890;48.158;11.540;2022-09-28T07:45:52;2.63;;;2.20;;
1785;SDS011;890;48.158;11.540;2022-09-28T07:48:18;2.07;;;1.60;;
1785;SDS011;890;48.158;11.540;2022-09-28T07:50:51;1.70;;;1.50;;
1785;SDS011;890;48.158;11.540;2022-09-28T07:53:22;2.20;;;1.47;;
1785;SDS011;890;48.158;11.540;2022-09-28T07:55:53;1.97;;;1.30;;
1785;SDS011;890;48.158;11.540;2022-09-28T07:58:20;1.77;;;1.20;;
1785;SDS011;890;48.158;11.540;2022-09-28T08:00:46;1.67;;;1.57;;
1785;SDS011;890;48.158;11.540;2022-09-28T08:03:16;1.97;;;1.77;;
1785;SDS011;890;48.158;11.540;2022-09-28T08:05:43;1.53;;;1.30;;
1785;SDS011;890;48.158;11.540;2022-09-28T08:08:10;6.23;;;1.20;;
1785;SDS011;890;48.158;11.540;2022-09-28T08:10:36;1.10;;;0.93;;
1785;SDS011;890;48.158;11.540;2022-09-28T08:13:02;1.50;;;0.90;;
1785;SDS011;890;48.158;11.540;2022-09-28T08:15:28;0.80;;;0.67;;
1785;SDS011;890;48.158;11.540;2022-09-28T08:18:01;1.10;;;1.00;;
1785;SDS011;890;48.158;11.540;2022-09-28T08:20:27;1.60;;;1.00;;
1785;SDS011;890;48.158;11.540;2022-09-28T08:23:13;2.00;;;1.00;;
1785;SDS011;890;48.158;11.540;2022-09-28T08:25:39;1.50;;;1.27;;
1785;SDS011;890;48.158;11.540;2022-09-28T08:28:10;2.17;;;1.43;;
1785;SDS011;890;48.158;11.540;2022-09-28T08:30:37;1.83;;;1.50;;
1785;SDS011;890;48.158;11.540;2022-09-28T08:33:02;5.13;;;2.07;;
1785;SDS011;890;48.158;11.540;2022-09-28T08:35:28;0.80;;;0.70;;
1785;SDS011;890;48.158;11.540;2022-09-28T08:37:53;3.10;;;1.80;;
1785;SDS011;890;48.158;11.540;2022-09-28T08:40:20;2.17;;;1.90;;
1785;SDS011;890;48.158;11.540;2022-09-28T08:43:00;1.10;;;0.97;;
1785;SDS011;890;48.158;11.540;2022-09-28T08:45:31;0.87;;;0.83;;
1785;SDS011;890;48.158;11.540;2022-09-28T08:51:01;1.60;;;1.13;;
1785;SDS011;890;48.158;11.540;2022-09-28T08:53:37;2.10;;;0.90;;
1785;SDS011;890;48.158;11.540;2022-09-28T08:56:25;1.87;;;1.40;;
1785;SDS011;890;48.158;11.540;2022-09-28T08:58:56;3.20;;;1.33;;
1785;SDS011;890;48.158;11.540;2022-09-28T09:01:27;2.00;;;1.10;;
1785;SDS011;890;48.158;11.540;2022-09-28T09:03:58;1.90;;;1.00;;
1785;SDS011;890;48.158;11.540;2022-09-28T09:14:42;1.30;;;0.83;;
1785;SDS011;890;48.158;11.540;2022-09-28T09:25:27;1.73;;;1.03;;
1785;SDS011;890;48.158;11.540;2022-09-28T09:30:34;1.33;;;1.10;;
1785;SDS011;890;48.158;11.540;2022-09-28T09:41:32;1.33;;;0.97;;
1785;SDS011;890;48.158;11.540;2022-09-28T09:46:48;1.03;;;0.93;;
1785;SDS011;890;48.158;11.540;2022-09-28T09:49:53;1.23;;;1.00;;
1785;SDS011;890;48.158;11.540;2022-09-28T09:52:33;1.63;;;1.53;;
1785;SDS011;890;48.158;11.540;2022-09-28T09:55:23;1.33;;;1.23;;
1785;SDS011;890;48.158;11.540;2022-09-28T09:57:54;2.00;;;1.53;;
1785;SDS011;890;48.158;11.540;2022-09-28T10:00:42;1.40;;;1.30;;
1785;SDS011;890;48.158;11.540;2022-09-28T10:03:14;1.40;;;1.30;;
1785;SDS011;890;48.158;11.540;2022-09-28T10:05:54;1.70;;;1.40;;
1785;SDS011;890;48.158;11.540;2022-09-28T10:08:33;1.40;;;1.30;;
1785;SDS011;890;48.158;11.540;2022-09-28T10:13:32;1.10;;;1.00;;
1785;SDS011;890;48.158;11.540;2022-09-28T10:15:58;1.33;;;1.03;;
1785;SDS011;890;48.158;11.540;2022-09-28T10:18:24;1.30;;;1.20;;
1785;SDS011;890;48.158;11.540;2022-09-28T10:20:52;1.50;;;1.40;;
1785;SDS011;890;48.158;11.540;2022-09-28T10:23:24;1.57;;;1.47;;
1785;SDS011;890;48.158;11.540;2022-09-28T10:25:54;1.63;;;1.20;;
1785;SDS011;890;48.158;11.540;2022-09-28T10:28:47;1.43;;;1.10;;
1785;SDS011;890;48.158;11.540;2022-09-28T10:34:00;1.37;;;1.00;;
1785;SDS011;890;48.158;11.540;2022-09-28T10:36:25;2.83;;;1.10;;
1785;SDS011;890;48.158;11.540;2022-09-28T10:38:52;2.10;;;1.27;;
1785;SDS011;890;48.158;11.540;2022-09-28T10:41:19;1.60;;;1.20;;
1785;SDS011;890;48.158;11.540;2022-09-28T10:43:53;2.73;;;1.40;;
1785;SDS011;890;48.158;11.540;2022-09-28T10:46:33;1.43;;;1.30;;
1785;SDS011;890;48.158;11.540;2022-09-28T10:49:01;2.63;;;1.60;;
1785;SDS011;890;48.158;11.540;2022-09-28T10:51:40;2.23;;;1.60;;
1785;SDS011;890;48.158;11.540;2022-09-28T10:54:09;2.50;;;1.40;;
1785;SDS011;890;48.158;11.540;2022-09-28T10:56:39;3.27;;;2.03;;
1785;SDS011;890;48.158;11.540;2022-09-28T10:59:33;1.53;;;1.30;;
1785;SDS011;890;48.158;11.540;2022-09-28T11:02:47;2.63;;;2.37;;
1785;SDS011;890;48.158;11.540;2022-09-28T11:04:51;2.93;;;2.73;;
1785;SDS011;890;48.158;11.540;2022-09-28T11:07:25;2.27;;;1.73;;
1785;SDS011;890;48.158;11.540;2022-09-28T11:09:56;3.20;;;1.30;;
1785;SDS011;890;48.158;11.540;2022-09-28T11:12:24;2.00;;;1.10;;
1785;SDS011;890;48.158;11.540;2022-09-28T11:15:02;3.17;;;2.10;;
1785;SDS011;890;48.158;11.540;2022-09-28T11:17:37;2.50;;;1.90;;
1785;SDS011;890;48.158;11.540;2022-09-28T11:22:51;2.70;;;1.67;;
1785;SDS011;890;48.158;11.540;2022-09-28T11:25:38;2.60;;;2.13;;
1785;SDS011;890;48.158;11.540;2022-09-28T11:28:05;3.00;;;2.50;;
1785;SDS011;890;48.158;11.540;2022-09-28T11:30:44;1.53;;;1.40;;
1785;SDS011;890;48.158;11.540;2022-09-28T11:44:13;3.50;;;2.60;;
1785;SDS011;890;48.158;11.540;2022-09-28T11:49:37;2.07;;;1.80;;
1785;SDS011;890;48.158;11.540;2022-09-28T11:52:23;1.80;;;1.47;;
1785;SDS011;890;48.158;11.540;2022-09-28T11:55:02;1.80;;;1.70;;
1785;SDS011;890;48.158;11.540;2022-09-28T11:57:35;2.03;;;1.70;;
1785;SDS011;890;48.158;11.540;2022-09-28T12:00:04;2.37;;;1.60;;
1785;SDS011;890;48.158;11.540;2022-09-28T12:02:44;2.30;;;2.00;;
1785;SDS011;890;48.158;11.540;2022-09-28T12:08:03;3.30;;;2.00;;
1785;SDS011;890;48.158;11.540;2022-09-28T12:10:36;2.70;;;2.07;;
1785;SDS011;890;48.158;11.540;2022-09-28T12:13:25;2.60;;;2.30;;
1785;SDS011;890;48.158;11.540;2022-09-28T12:15:59;2.10;;;1.90;;
1785;SDS011;890;48.158;11.540;2022-09-28T12:18:55;2.90;;;1.90;;
1785;SDS011;890;48.158;11.540;2022-09-28T12:27:06;4.60;;;2.20;;
1785;SDS011;890;48.158;11.540;2022-09-28T12:32:30;5.73;;;3.40;;
1785;SDS011;890;48.158;11.540;2022-09-28T12:35:11;3.70;;;2.60;;
1785;SDS011;890;48.158;11.540;2022-09-28T12:40:15;3.37;;;1.93;;
1785;SDS011;890;48.158;11.540;2022-09-28T12:56:01;3.00;;;2.10;;
1785;SDS011;890;48.158;11.540;2022-09-28T13:20:01;2.43;;;2.10;;
1785;SDS011;890;48.158;11.540;2022-09-28T13:25:21;3.80;;;3.20;;
1785;SDS011;890;48.158;11.540;2022-09-28T13:28:00;2.77;;;2.57;;
1785;SDS011;890;48.158;11.540;2022-09-28T13:30:28;4.80;;;2.37;;
1785;SDS011;890;48.158;11.540;2022-09-28T13:32:54;3.87;;;2.20;;
1785;SDS011;890;48.158;11.540;2022-09-28T13:35:23;3.10;;;2.80;;
1785;SDS011;890;48.158;11.540;2022-09-28T13:43:32;2.33;;;2.13;;
1785;SDS011;890;48.158;11.540;2022-09-28T13:46:01;3.13;;;2.17;;
1785;SDS011;890;48.158;11.540;2022-09-28T13:54:16;3.20;;;2.50;;
1785;SDS011;890;48.158;11.540;2022-09-28T13:57:02;2.80;;;2.43;;
1785;SDS011;890;48.158;11.540;2022-09-28T14:00:06;4.93;;;2.60;;
1785;SDS011;890;48.158;11.540;2022-09-28T14:03:41;3.50;;;3.20;;
1785;SDS011;890;48.158;11.540;2022-09-28T14:06:29;3.63;;;3.13;;
1785;SDS011;890;48.158;11.540;2022-09-28T14:11:41;4.67;;;2.83;;
1785;SDS011;890;48.158;11.540;2022-09-28T14:19:54;4.60;;;3.63;;
1785;SDS011;890;48.158;11.540;2022-09-28T14:25:19;4.57;;;3.73;;
1785;SDS011;890;48.158;11.540;2022-09-28T14:30:25;3.80;;;3.13;;
1785;SDS011;890;48.158;11.540;2022-09-28T14:33:14;3.87;;;3.10;;
1785;SDS011;890;48.158;11.540;2022-09-28T14:35:48;4.30;;;3.40;;
1785;SDS011;890;48.158;11.540;2022-09-28T14:38:44;4.37;;;3.60;;
1785;SDS011;890;48.158;11.540;2022-09-28T14:41:30;3.50;;;3.20;;
1785;SDS011;890;48.158;11.540;2022-09-28T14:54:19;3.30;;;2.87;;
1785;SDS011;890;48.158;11.540;2022-09-28T15:04:26;4.33;;;3.60;;
1785;SDS011;890;48.158;11.540;2022-09-28T15:06:54;4.20;;;3.27;;
1785;SDS011;890;48.158;11.540;2022-09-28T15:14:24;3.90;;;3.43;;
1785;SDS011;890;48.158;11.540;2022-09-28T15:16:52;4.53;;;3.90;;
1785;SDS011;890;48.158;11.540;2022-09-28T15:19:54;5.20;;;3.77;;
1785;SDS011;890;48.158;11.540;2022-09-28T15:22:29;7.17;;;3.40;;
1785;SDS011;890;48.158;11.540;2022-09-28T15:24:57;4.40;;;4.00;;
1785;SDS011;890;48.158;11.540;2022-09-28T15:27:27;4.87;;;4.23;;
1785;SDS011;890;48.158;11.540;2022-09-28T15:32:47;5.80;;;5.10;;
1785;SDS011;890;48.158;11.540;2022-09-28T15:35:34;5.03;;;4.00;;
1785;SDS011;890;48.158;11.540;2022-09-28T15:37:59;7.17;;;5.30;;
1785;SDS011;890;48.158;11.540;2022-09-28T15:42:53;7.13;;;5.33;;
1785;SDS011;890;48.158;11.540;2022-09-28T15:45:26;9.17;;;8.27;;
1785;SDS011;890;48.158;11.540;2022-09-28T15:48:21;5.67;;;3.97;;
1785;SDS011;890;48.158;11.540;2022-09-28T15:51:05;4.67;;;3.77;;
1785;SDS011;890;48.158;11.540;2022-09-28T15:53:35;4.70;;;3.87;;
1785;SDS011;890;48.158;11.540;2022-09-28T15:56:10;4.63;;;4.10;;
1785;SDS011;890;48.158;11.540;2022-09-28T15:58:36;5.90;;;4.30;;
1785;SDS011;890;48.158;11.540;2022-09-28T16:03:51;5.00;;;3.70;;
1785;SDS011;890;48.158;11.540;2022-09-28T16:06:16;4.70;;;3.90;;
1785;SDS011;890;48.158;11.540;2022-09-28T16:08:45;3.40;;;3.10;;
1785;SDS011;890;48.158;11.540;2022-09-28T16:14:14;5.77;;;4.53;;
1785;SDS011;890;48.158;11.540;2022-09-28T16:16:49;3.57;;;3.20;;
1785;SDS011;890;48.158;11.540;2022-09-28T16:19:23;3.97;;;2.93;;
1785;SDS011;890;48.158;11.540;2022-09-28T16:21:53;4.83;;;3.10;;
1785;SDS011;890;48.158;11.540;2022-09-28T16:24:25;3.70;;;3.20;;
1785;SDS011;890;48.158;11.540;2022-09-28T16:27:04;6.90;;;3.50;;
1785;SDS011;890;48.158;11.540;2022-09-28T16:29:40;7.73;;;4.60;;
1785;SDS011;890;48.158;11.540;2022-09-28T16:34:50;6.30;;;3.63;;
1785;SDS011;890;48.158;11.540;2022-09-28T16:37:30;4.47;;;4.00;;
1785;SDS011;890;48.158;11.540;2022-09-28T16:39:56;5.17;;;3.73;;
1785;SDS011;890;48.158;11.540;2022-09-28T16:42:22;5.37;;;4.00;;
1785;SDS011;890;48.158;11.540;2022-09-28T16:44:49;5.40;;;4.43;;
1785;SDS011;890;48.158;11.540;2022-09-28T16:47:15;4.60;;;3.70;;
1785;SDS011;890;48.158;11.540;2022-09-28T16:49:40;4.93;;;4.17;;
1785;SDS011;890;48.158;11.540;2022-09-28T16:52:10;4.40;;;3.60;;
1785;SDS011;890;48.158;11.540;2022-09-28T16:54:36;6.53;;;4.30;;
1785;SDS011;890;48.158;11.540;2022-09-28T16:57:20;4.43;;;4.03;;
1785;SDS011;890;48.158;11.540;2022-09-28T16:59:45;4.73;;;4.30;;
1785;SDS011;890;48.158;11.540;2022-09-28T17:02:18;5.30;;;4.43;;
1785;SDS011;890;48.158;11.540;2022-09-28T17:04:45;5.63;;;4.30;;
1785;SDS011;890;48.158;11.540;2022-09-28T17:07:11;5.30;;;4.27;;
1785;SDS011;890;48.158;11.540;2022-09-28T17:09:38;4.63;;;4.23;;
1785;SDS011;890;48.158;11.540;2022-09-28T17:12:19;6.57;;;4.17;;
1785;SDS011;890;48.158;11.540;2022-09-28T17:14:48;4.10;;;3.70;;
1785;SDS011;890;48.158;11.540;2022-09-28T17:17:14;5.90;;;3.53;;
1785;SDS011;890;48.158;11.540;2022-09-28T17:19:40;6.80;;;5.00;;
1785;SDS011;890;48.158;11.540;2022-09-28T17:22:07;4.43;;;4.03;;
1785;SDS011;890;48.158;11.540;2022-09-28T17:24:33;4.20;;;3.90;;
1785;SDS011;890;48.158;11.540;2022-09-28T17:26:59;4.70;;;4.27;;
1785;SDS011;890;48.158;11.540;2022-09-28T17:29:25;5.00;;;4.50;;
1785;SDS011;890;48.158;11.540;2022-09-28T17:31:51;5.17;;;4.20;;
1785;SDS011;890;48.158;11.540;2022-09-28T17:34:18;4.40;;;4.00;;
1785;SDS011;890;48.158;11.540;2022-09-28T17:36:44;4.47;;;4.07;;
1785;SDS011;890;48.158;11.540;2022-09-28T17:39:11;4.77;;;3.23;;
1785;SDS011;890;48.158;11.540;2022-09-28T17:41:38;4.30;;;3.40;;
1785;SDS011;890;48.158;11.540;2022-09-28T17:44:04;3.90;;;3.53;;
1785;SDS011;890;48.158;11.540;2022-09-28T17:46:35;4.70;;;4.20;;
1785;SDS011;890;48.158;11.540;2022-09-28T17:49:03;4.30;;;3.73;;
1785;SDS011;890;48.158;11.540;2022-09-28T17:51:31;5.60;;;4.23;;
1785;SDS011;890;48.158;11.540;2022-09-28T17:53:59;4.97;;;3.80;;
1785;SDS011;890;48.158;11.540;2022-09-28T17:56:25;5.77;;;4.30;;
1785;SDS011;890;48.158;11.540;2022-09-28T17:58:52;4.90;;;4.27;;
1785;SDS011;890;48.158;11.540;2022-09-28T18:01:18;4.80;;;4.17;;
1785;SDS011;890;48.158;11.540;2022-09-28T18:03:44;4.97;;;4.40;;
1785;SDS011;890;48.158;11.540;2022-09-28T18:06:13;4.90;;;4.50;;
1785;SDS011;890;48.158;11.540;2022-09-28T18:08:43;4.80;;;4.40;;
1785;SDS011;890;48.158;11.540;2022-09-28T18:11:09;4.90;;;4.30;;
1785;SDS011;890;48.158;11.540;2022-09-28T18:13:36;5.40;;;4.63;;
1785;SDS011;890;48.158;11.540;2022-09-28T18:16:02;5.60;;;5.10;;
1785;SDS011;890;48.158;11.540;2022-09-28T18:18:28;4.80;;;4.20;;
1785;SDS011;890;48.158;11.540;2022-09-28T18:20:54;6.50;;;4.40;;
1785;SDS011;890;48.158;11.540;2022-09-28T18:23:20;6.00;;;4.37;;
1785;SDS011;890;48.158;11.540;2022-09-28T18:25:46;5.30;;;4.63;;
1785;SDS011;890;48.158;11.540;2022-09-28T18:28:12;6.70;;;5.20;;
1785;SDS011;890;48.158;11.540;2022-09-28T18:30:39;5.33;;;4.47;;
1785;SDS011;890;48.158;11.540;2022-09-28T18:33:06;7.80;;;5.10;;
1785;SDS011;890;48.158;11.540;2022-09-28T18:35:32;5.47;;;4.83;;
1785;SDS011;890;48.158;11.540;2022-09-28T18:37:58;4.27;;;3.87;;
1785;SDS011;890;48.158;11.540;2022-09-28T18:40:24;3.30;;;3.00;;
1785;SDS011;890;48.158;11.540;2022-09-28T18:42:49;3.93;;;3.50;;
1785;SDS011;890;48.158;11.540;2022-09-28T18:45:15;4.10;;;3.27;;
1785;SDS011;890;48.158;11.540;2022-09-28T18:47:42;4.27;;;3.50;;
1785;SDS011;890;48.158;11.540;2022-09-28T18:50:09;4.03;;;3.63;;
1785;SDS011;890;48.158;11.540;2022-09-28T18:52:39;5.93;;;3.63;;
1785;SDS011;890;48.158;11.540;2022-09-28T18:55:07;3.53;;;3.20;;
1785;SDS011;890;48.158;11.540;2022-09-28T18:57:33;4.97;;;3.70;;
1785;SDS011;890;48.158;11.540;2022-09-28T19:00:03;4.23;;;3.83;;
1785;SDS011;890;48.158;11.540;2022-09-28T19:02:31;5.23;;;4.40;;